Time;durP1;ratioP1;P1;durP2;ratioP2;P2;SDS_P1;SDS_P2;PMS_P1;PMS_P2;Temp;Humidity;BMP_temperature;BMP_pressure;BME280_temperature;BME280_humidity;BME280_pressure;Samples;Min_cycle;Max_cycle;Signal;HPM_P1;HPM_P2
2022/02/21 00:00:09;;;;;;;3.33;1.13;;;;;;;;;;6235345;22;20210;-85
2022/02/21 00:02:35;;;;;;;3.92;1.05;;;;;;;;;;6259686;22;20252;-85
2022/02/21 00:05:01;;;;;;;2.92;1.10;;;;;;;;;;6238146;23;20200;-86
2022/02/21 00:07:27;;;;;;;2.92;1.30;;;;;;;;;;6166363;23;20187;-84
2022/02/21 00:09:53;;;;;;;4.70;1.13;;;;;;;;;;6107177;23;20175;-87
2022/02/21 00:12:19;;;;;;;3.83;1.90;;;;;;;;;;6011148;23;20876;-86
2022/02/21 00:14:45;;;;;;;4.70;1.30;;;;;;;;;;5843185;24;20195;-83
2022/02/21 00:17:13;;;;;;;4.45;1.45;;;;;;;;;;5582784;24;20474;-85
2022/02/21 00:22:13;;;;;;;4.93;1.00;;;;;;;;;;5193878;27;20643;-85
2022/02/21 00:24:39;;;;;;;4.70;2.00;;;;;;;;;;5170120;27;20210;-85
2022/02/21 00:27:05;;;;;;;8.18;3.05;;;;;;;;;;5150505;27;20223;-85
2022/02/21 00:29:31;;;;;;;2.38;1.10;;;;;;;;;;5124611;28;20188;-86
2022/02/21 00:31:57;;;;;;;7.20;1.70;;;;;;;;;;5061191;28;20290;-85
2022/02/21 00:34:23;;;;;;;9.18;1.50;;;;;;;;;;4991083;28;20208;-83
2022/02/21 00:36:49;;;;;;;5.72;1.52;;;;;;;;;;4908122;28;20731;-85
2022/02/21 00:39:15;;;;;;;3.70;1.30;;;;;;;;;;4674996;29;20221;-83
2022/02/21 00:44:18;;;;;;;8.95;1.20;;;;;;;;;;5193209;27;20888;-86
2022/02/21 00:46:44;;;;;;;6.30;1.55;;;;;;;;;;5132293;27;20214;-86
2022/02/21 00:49:10;;;;;;;4.20;0.87;;;;;;;;;;5114137;27;20198;-85
2022/02/21 00:51:36;;;;;;;8.27;1.30;;;;;;;;;;5135319;27;20440;-85
2022/02/21 00:54:02;;;;;;;5.73;2.53;;;;;;;;;;5020959;28;20442;-84
2022/02/21 00:56:28;;;;;;;7.30;1.37;;;;;;;;;;4978594;28;21011;-84
2022/02/21 00:58:54;;;;;;;4.13;1.15;;;;;;;;;;4846075;28;20484;-85
2022/02/21 01:01:20;;;;;;;8.32;1.70;;;;;;;;;;4783534;29;20236;-84
2022/02/21 01:03:46;;;;;;;7.43;1.92;;;;;;;;;;4596721;30;20235;-83
2022/02/21 01:08:46;;;;;;;7.50;1.73;;;;;;;;;;5193119;27;20827;-86
2022/02/21 01:11:13;;;;;;;4.05;1.52;;;;;;;;;;5171184;27;20202;-82
2022/02/21 01:13:39;;;;;;;3.90;1.15;;;;;;;;;;5172810;27;20640;-88
2022/02/21 01:16:05;;;;;;;7.05;1.67;;;;;;;;;;5173081;27;20205;-85
2022/02/21 01:18:31;;;;;;;2.15;0.85;;;;;;;;;;5093455;28;20204;-87
2022/02/21 01:20:57;;;;;;;2.33;0.90;;;;;;;;;;5027008;28;20258;-85
2022/02/21 01:25:58;;;;;;;4.15;1.00;;;;;;;;;;4960530;28;20241;-86
2022/02/21 01:28:24;;;;;;;1.85;1.05;;;;;;;;;;4631916;29;20413;-85
2022/02/21 01:32:15;;;;;;;1.92;1.30;;;;;;;;;;5193154;27;20843;-87
2022/02/21 01:34:41;;;;;;;5.40;1.20;;;;;;;;;;5172857;27;20227;-86
2022/02/21 01:37:07;;;;;;;4.35;1.52;;;;;;;;;;5158039;27;20200;-87
2022/02/21 01:39:33;;;;;;;3.13;1.20;;;;;;;;;;5102974;28;20188;-86
2022/02/21 01:41:59;;;;;;;25.13;2.03;;;;;;;;;;5012748;28;20198;-84
2022/02/21 01:44:39;;;;;;;4.30;1.50;;;;;;;;;;5003496;28;20219;-86
2022/02/21 01:47:06;;;;;;;3.08;1.30;;;;;;;;;;4908811;28;20224;-87
2022/02/21 01:49:32;;;;;;;7.07;1.27;;;;;;;;;;4764786;29;20201;-82
2022/02/21 01:51:58;;;;;;;2.33;1.38;;;;;;;;;;4645099;30;20240;-81
2022/02/21 01:56:56;;;;;;;7.47;1.95;;;;;;;;;;5173704;27;21024;-84
2022/02/21 01:59:24;;;;;;;5.38;1.33;;;;;;;;;;5150754;27;20205;-82
2022/02/21 02:01:50;;;;;;;4.03;1.67;;;;;;;;;;5114666;27;20201;-82
2022/02/21 02:04:16;;;;;;;2.58;0.85;;;;;;;;;;5149853;27;20186;-83
2022/02/21 02:06:42;;;;;;;2.25;0.98;;;;;;;;;;5114897;27;20211;-82
2022/02/21 02:09:09;;;;;;;2.15;0.60;;;;;;;;;;5071119;28;20194;-83
2022/02/21 02:11:36;;;;;;;3.25;2.38;;;;;;;;;;4894322;28;20276;-82
2022/02/21 02:14:03;;;;;;;5.20;1.15;;;;;;;;;;4730626;29;20322;-83
2022/02/21 02:16:29;;;;;;;7.10;1.45;;;;;;;;;;4580520;30;20332;-82
2022/02/21 02:21:08;;;;;;;5.65;1.20;;;;;;;;;;5192454;27;20488;-81
2022/02/21 02:23:34;;;;;;;2.25;0.80;;;;;;;;;;5188001;27;20176;-80
2022/02/21 02:26:00;;;;;;;5.53;1.70;;;;;;;;;;5121160;27;20628;-81
2022/02/21 02:28:26;;;;;;;2.85;1.38;;;;;;;;;;5087560;28;20449;-81
2022/02/21 02:30:52;;;;;;;5.45;2.38;;;;;;;;;;5043002;28;20227;-81
2022/02/21 02:33:18;;;;;;;2.27;1.00;;;;;;;;;;5047048;28;20226;-82
2022/02/21 02:35:44;;;;;;;2.78;0.90;;;;;;;;;;4982578;28;20464;-82
2022/02/21 02:38:10;;;;;;;6.85;1.50;;;;;;;;;;4875963;29;20196;-80
2022/02/21 02:40:37;;;;;;;4.60;1.40;;;;;;;;;;4659079;29;20656;-81
2022/02/21 02:45:04;;;;;;;2.60;0.85;;;;;;;;;;5189442;27;20502;-82
2022/02/21 02:47:30;;;;;;;6.10;2.00;;;;;;;;;;5170250;27;20228;-83
2022/02/21 02:49:56;;;;;;;8.83;1.10;;;;;;;;;;5192598;27;20249;-82
2022/02/21 02:52:22;;;;;;;1.63;1.30;;;;;;;;;;5178828;27;20521;-80
2022/02/21 02:54:48;;;;;;;5.10;1.20;;;;;;;;;;5130684;27;20293;-82
2022/02/21 02:57:14;;;;;;;4.00;0.82;;;;;;;;;;5020492;28;20432;-83
2022/02/21 02:59:40;;;;;;;2.92;0.80;;;;;;;;;;4848470;29;20275;-82
2022/02/21 03:02:06;;;;;;;3.10;1.67;;;;;;;;;;4717714;29;20264;-79
2022/02/21 03:04:32;;;;;;;1.35;0.80;;;;;;;;;;4713352;30;20496;-81
2022/02/21 03:08:47;;;;;;;8.40;1.38;;;;;;;;;;5193458;27;20961;-82
2022/02/21 03:11:13;;;;;;;3.20;1.15;;;;;;;;;;5170949;27;20189;-83
2022/02/21 03:13:39;;;;;;;5.65;2.10;;;;;;;;;;5156870;27;20189;-83
2022/02/21 03:16:06;;;;;;;6.85;2.75;;;;;;;;;;5104382;28;20726;-83
2022/02/21 03:18:32;;;;;;;4.47;2.45;;;;;;;;;;5020040;28;20237;-82
2022/02/21 03:20:58;;;;;;;3.25;1.15;;;;;;;;;;4920392;28;20648;-83
2022/02/21 03:23:24;;;;;;;3.75;1.20;;;;;;;;;;4864776;29;20208;-82
2022/02/21 03:25:50;;;;;;;7.10;2.25;;;;;;;;;;4790996;29;20229;-81
2022/02/21 03:28:16;;;;;;;4.47;1.60;;;;;;;;;;4531144;30;20245;-82
2022/02/21 03:31:45;;;;;;;7.07;1.52;;;;;;;;;;5193487;27;20469;-82
2022/02/21 03:34:11;;;;;;;3.63;1.45;;;;;;;;;;5188078;27;20546;-81
2022/02/21 03:36:37;;;;;;;4.20;1.45;;;;;;;;;;5170447;27;20205;-82
2022/02/21 03:39:04;;;;;;;2.35;1.73;;;;;;;;;;5126519;27;20286;-81
2022/02/21 03:41:30;;;;;;;6.18;1.52;;;;;;;;;;5054563;28;20202;-81
2022/02/21 03:43:56;;;;;;;4.35;1.60;;;;;;;;;;5028705;28;20278;-81
2022/02/21 03:46:22;;;;;;;3.97;1.33;;;;;;;;;;4919291;29;20214;-80
2022/02/21 03:48:48;;;;;;;9.00;1.83;;;;;;;;;;4788295;29;20207;-81
2022/02/21 03:51:14;;;;;;;3.72;1.40;;;;;;;;;;4604503;30;20620;-80
2022/02/21 03:54:56;;;;;;;7.97;1.33;;;;;;;;;;5190757;27;20314;-79
2022/02/21 03:57:22;;;;;;;2.88;0.90;;;;;;;;;;5168216;27;20249;-80
2022/02/21 03:59:49;;;;;;;9.68;1.70;;;;;;;;;;5187777;27;20617;-79
2022/02/21 04:02:15;;;;;;;5.85;1.25;;;;;;;;;;5153754;27;20292;-80
2022/02/21 04:04:41;;;;;;;9.13;2.00;;;;;;;;;;5101358;27;20235;-80
2022/02/21 04:07:07;;;;;;;3.58;1.40;;;;;;;;;;4984128;28;20216;-81
2022/02/21 04:09:33;;;;;;;5.20;1.83;;;;;;;;;;4845025;29;20209;-81
2022/02/21 04:11:59;;;;;;;7.45;2.47;;;;;;;;;;4730426;30;20209;-80
2022/02/21 04:14:25;;;;;;;5.57;1.50;;;;;;;;;;4549704;30;20319;-81
2022/02/21 04:18:37;;;;;;;14.57;1.80;;;;;;;;;;5193449;27;20477;-81
2022/02/21 04:21:03;;;;;;;4.83;1.20;;;;;;;;;;5153484;27;20196;-79
2022/02/21 04:23:29;;;;;;;7.80;2.25;;;;;;;;;;5169868;27;20422;-80
2022/02/21 04:25:55;;;;;;;3.60;1.50;;;;;;;;;;5109118;27;20217;-82
2022/02/21 04:28:21;;;;;;;6.17;1.43;;;;;;;;;;5031481;28;20526;-80
2022/02/21 04:30:47;;;;;;;4.13;2.00;;;;;;;;;;4941897;28;20446;-80
2022/02/21 04:33:13;;;;;;;7.45;1.55;;;;;;;;;;4871292;29;20520;-80
2022/02/21 04:35:39;;;;;;;8.90;1.75;;;;;;;;;;4748069;29;20257;-80
2022/02/21 04:38:05;;;;;;;10.52;2.13;;;;;;;;;;4605943;30;20270;-80
2022/02/21 04:41:48;;;;;;;1.92;0.93;;;;;;;;;;5192908;27;20472;-80
2022/02/21 04:44:15;;;;;;;3.70;1.17;;;;;;;;;;5154376;27;20203;-81
2022/02/21 04:46:41;;;;;;;6.68;1.88;;;;;;;;;;5155743;27;20496;-82
2022/02/21 04:49:07;;;;;;;8.33;2.07;;;;;;;;;;5142371;27;20557;-80
2022/02/21 04:51:33;;;;;;;13.73;2.17;;;;;;;;;;5084324;28;20518;-80
2022/02/21 04:53:59;;;;;;;6.47;2.00;;;;;;;;;;5033588;28;20438;-79
2022/02/21 04:56:25;;;;;;;6.68;2.92;;;;;;;;;;4972167;28;20517;-80
2022/02/21 04:58:51;;;;;;;11.03;1.97;;;;;;;;;;4874464;28;20216;-79
2022/02/21 05:01:17;;;;;;;6.13;1.77;;;;;;;;;;4697753;29;20496;-80
2022/02/21 05:05:13;;;;;;;12.65;2.35;;;;;;;;;;5188049;27;20497;-79
2022/02/21 05:07:40;;;;;;;6.75;3.20;;;;;;;;;;5170662;27;20271;-81
2022/02/21 05:10:06;;;;;;;10.23;2.50;;;;;;;;;;5159756;27;20304;-79
2022/02/21 05:12:32;;;;;;;15.55;2.10;;;;;;;;;;5162139;27;20194;-79
2022/02/21 05:14:58;;;;;;;9.82;2.20;;;;;;;;;;5112423;28;20183;-80
2022/02/21 05:17:24;;;;;;;6.38;2.35;;;;;;;;;;5036827;28;20203;-77
2022/02/21 05:19:50;;;;;;;5.23;1.03;;;;;;;;;;4997651;28;20536;-79
2022/02/21 05:22:16;;;;;;;11.60;2.33;;;;;;;;;;4964788;28;20489;-80
2022/02/21 05:24:42;;;;;;;4.13;1.80;;;;;;;;;;4787566;29;20227;-80
2022/02/21 05:28:42;;;;;;;3.88;2.20;;;;;;;;;;5192596;27;20484;-79
2022/02/21 05:31:08;;;;;;;7.93;1.77;;;;;;;;;;5169747;27;20216;-78
2022/02/21 05:33:34;;;;;;;6.30;2.10;;;;;;;;;;5171202;27;20228;-79
2022/02/21 05:36:00;;;;;;;11.80;2.10;;;;;;;;;;5134701;27;20456;-78
2022/02/21 05:38:26;;;;;;;10.53;1.87;;;;;;;;;;5091396;28;20497;-78
2022/02/21 05:40:52;;;;;;;10.00;1.67;;;;;;;;;;5033013;28;20867;-80
2022/02/21 05:43:18;;;;;;;4.35;2.45;;;;;;;;;;5012995;28;20201;-78
2022/02/21 05:45:44;;;;;;;10.93;2.78;;;;;;;;;;5047246;28;20207;-78
2022/02/21 05:48:10;;;;;;;9.57;2.30;;;;;;;;;;4961175;28;20240;-79
2022/02/21 05:53:08;;;;;;;5.82;1.73;;;;;;;;;;5151133;27;20293;-77
2022/02/21 05:55:34;;;;;;;11.43;2.70;;;;;;;;;;5138222;27;20214;-78
2022/02/21 05:58:00;;;;;;;9.88;2.33;;;;;;;;;;5109344;28;20437;-78
2022/02/21 06:00:27;;;;;;;11.45;2.42;;;;;;;;;;5094936;28;20666;-79
2022/02/21 06:02:53;;;;;;;8.65;1.88;;;;;;;;;;5066933;28;20567;-79
2022/02/21 06:05:19;;;;;;;9.68;2.17;;;;;;;;;;5053173;28;20217;-78
2022/02/21 06:07:45;;;;;;;10.52;2.50;;;;;;;;;;5043365;28;20193;-78
2022/02/21 06:10:11;;;;;;;14.98;2.10;;;;;;;;;;5039388;28;20197;-80
2022/02/21 06:12:37;;;;;;;7.20;2.13;;;;;;;;;;4941864;28;20693;-79
2022/02/21 06:17:35;;;;;;;16.70;2.00;;;;;;;;;;5193131;27;20311;-78
2022/02/21 06:20:01;;;;;;;11.63;2.30;;;;;;;;;;5156770;27;20649;-77
2022/02/21 06:22:27;;;;;;;13.27;2.30;;;;;;;;;;5167981;27;20577;-77
2022/02/21 06:24:53;;;;;;;6.10;2.00;;;;;;;;;;5147707;27;20221;-77
2022/02/21 06:27:19;;;;;;;7.13;2.20;;;;;;;;;;5063588;28;20452;-77
2022/02/21 06:29:45;;;;;;;7.53;1.90;;;;;;;;;;4987306;28;20428;-76
2022/02/21 06:32:11;;;;;;;9.17;2.50;;;;;;;;;;4967456;28;21013;-76
2022/02/21 06:34:37;;;;;;;6.50;2.00;;;;;;;;;;4942540;28;20441;-77
2022/02/21 06:37:03;;;;;;;11.10;2.67;;;;;;;;;;4941465;28;20290;-76
2022/02/21 06:42:08;;;;;;;5.35;2.25;;;;;;;;;;5151283;27;20491;-77
2022/02/21 06:44:34;;;;;;;8.45;2.78;;;;;;;;;;5145782;27;20308;-77
2022/02/21 06:47:00;;;;;;;6.53;2.50;;;;;;;;;;5130196;27;20270;-77
2022/02/21 06:49:26;;;;;;;6.80;1.87;;;;;;;;;;5105887;28;20434;-76
2022/02/21 06:51:52;;;;;;;5.73;1.60;;;;;;;;;;5087664;28;20797;-76
2022/02/21 06:54:19;;;;;;;13.87;2.90;;;;;;;;;;5099514;28;20421;-77
2022/02/21 06:56:45;;;;;;;8.75;2.33;;;;;;;;;;5053661;28;20474;-78
2022/02/21 06:59:11;;;;;;;8.40;2.47;;;;;;;;;;5026896;28;20268;-77
2022/02/21 07:01:37;;;;;;;11.23;2.05;;;;;;;;;;4968568;28;20255;-76
2022/02/21 07:06:35;;;;;;;7.20;1.85;;;;;;;;;;5176585;27;20858;-76
2022/02/21 07:09:02;;;;;;;6.63;1.90;;;;;;;;;;5185832;27;20194;-77
2022/02/21 07:11:28;;;;;;;9.80;2.42;;;;;;;;;;5172589;27;20557;-76
2022/02/21 07:13:54;;;;;;;10.73;2.63;;;;;;;;;;5191231;27;20194;-77
2022/02/21 07:16:20;;;;;;;5.77;1.67;;;;;;;;;;5142172;27;20442;-76
2022/02/21 07:18:46;;;;;;;2.40;1.50;;;;;;;;;;5129584;27;20753;-77
2022/02/21 07:21:12;;;;;;;7.60;2.40;;;;;;;;;;5156873;27;20427;-77
2022/02/21 07:23:38;;;;;;;7.32;2.03;;;;;;;;;;5164506;27;20429;-77
2022/02/21 07:26:04;;;;;;;8.57;2.00;;;;;;;;;;5085393;28;20225;-77
2022/02/21 07:31:14;;;;;;;7.60;2.53;;;;;;;;;;5192819;27;20853;-76
2022/02/21 07:33:40;;;;;;;6.47;2.13;;;;;;;;;;5187822;27;20185;-76
2022/02/21 07:36:06;;;;;;;11.48;2.28;;;;;;;;;;5179537;27;20225;-75
2022/02/21 07:38:32;;;;;;;3.78;1.10;;;;;;;;;;5166272;27;20182;-76
2022/02/21 07:41:00;;;;;;;6.03;3.03;;;;;;;;;;5106748;28;20622;-77
2022/02/21 07:43:26;;;;;;;11.15;3.05;;;;;;;;;;5071916;28;20208;-76
2022/02/21 07:45:53;;;;;;;3.55;1.98;;;;;;;;;;5003718;28;20745;-76
2022/02/21 07:48:19;;;;;;;6.82;1.83;;;;;;;;;;5005222;28;20286;-77
2022/02/21 07:50:45;;;;;;;4.97;1.77;;;;;;;;;;4993680;28;20301;-76
2022/02/21 07:55:52;;;;;;;10.48;2.10;;;;;;;;;;5182711;27;20495;-76
2022/02/21 07:58:18;;;;;;;4.68;1.60;;;;;;;;;;5187881;27;20596;-77
2022/02/21 08:00:44;;;;;;;2.45;1.00;;;;;;;;;;5192042;27;20199;-78
2022/02/21 08:03:10;;;;;;;4.53;1.52;;;;;;;;;;5191136;27;20263;-77
2022/02/21 08:05:36;;;;;;;6.75;1.63;;;;;;;;;;5161312;27;20731;-77
2022/02/21 08:08:08;;;;;;;3.20;1.23;;;;;;;;;;5131842;27;20189;-76
2022/02/21 08:10:34;;;;;;;10.68;1.63;;;;;;;;;;5157701;27;20196;-77
2022/02/21 08:13:00;;;;;;;5.95;1.45;;;;;;;;;;5141872;27;20198;-77
2022/02/21 08:15:26;;;;;;;2.65;1.20;;;;;;;;;;5092991;27;20228;-77
2022/02/21 08:20:02;;;;;;;11.15;1.98;;;;;;;;;;5193164;27;20499;-77
2022/02/21 08:22:28;;;;;;;4.75;1.30;;;;;;;;;;5187823;27;20638;-77
2022/02/21 08:24:54;;;;;;;6.03;1.38;;;;;;;;;;5170904;27;20249;-77
2022/02/21 08:27:20;;;;;;;5.10;1.50;;;;;;;;;;5170699;27;20580;-77
2022/02/21 08:29:46;;;;;;;7.73;2.53;;;;;;;;;;5118239;27;20517;-77
2022/02/21 08:32:12;;;;;;;5.90;1.77;;;;;;;;;;5047748;28;20480;-76
2022/02/21 08:34:40;;;;;;;5.15;1.60;;;;;;;;;;4965972;28;21012;-77
2022/02/21 08:37:06;;;;;;;2.85;1.60;;;;;;;;;;4968294;28;20222;-77
2022/02/21 08:39:33;;;;;;;8.65;2.65;;;;;;;;;;4972354;28;20218;-77
2022/02/21 08:44:14;;;;;;;6.80;1.50;;;;;;;;;;5192872;27;20505;-77
2022/02/21 08:46:40;;;;;;;6.40;1.42;;;;;;;;;;5170386;27;20217;-77
2022/02/21 08:49:06;;;;;;;6.50;1.83;;;;;;;;;;5171169;27;20181;-76
2022/02/21 08:51:32;;;;;;;7.85;1.90;;;;;;;;;;5137202;27;20511;-77
2022/02/21 08:53:59;;;;;;;5.45;1.55;;;;;;;;;;5058174;28;20611;-77
2022/02/21 08:56:25;;;;;;;7.93;1.77;;;;;;;;;;5045673;28;20294;-77
2022/02/21 08:58:51;;;;;;;6.50;1.35;;;;;;;;;;5065164;28;20271;-78
2022/02/21 09:01:17;;;;;;;18.97;1.87;;;;;;;;;;5021839;28;20285;-77
2022/02/21 09:03:43;;;;;;;5.72;1.83;;;;;;;;;;4950813;28;20487;-77
2022/02/21 09:08:46;;;;;;;9.07;1.90;;;;;;;;;;5183658;27;20852;-75
2022/02/21 09:11:12;;;;;;;5.35;1.33;;;;;;;;;;5175499;27;20189;-77
2022/02/21 09:13:38;;;;;;;6.53;1.88;;;;;;;;;;5168504;27;20190;-77
2022/02/21 09:16:05;;;;;;;7.10;2.03;;;;;;;;;;5147574;27;20584;-77
2022/02/21 09:18:31;;;;;;;5.20;1.73;;;;;;;;;;5104943;27;20186;-77
2022/02/21 09:20:59;;;;;;;10.68;2.15;;;;;;;;;;5032807;28;20188;-78
2022/02/21 09:23:25;;;;;;;8.02;1.83;;;;;;;;;;5063553;28;20601;-76
2022/02/21 09:25:51;;;;;;;4.45;1.58;;;;;;;;;;5002636;28;20240;-78
2022/02/21 09:28:17;;;;;;;3.95;1.67;;;;;;;;;;4973024;28;20217;-76
2022/02/21 09:33:45;;;;;;;4.18;1.52;;;;;;;;;;5192744;27;20996;-77
2022/02/21 09:36:11;;;;;;;6.80;2.55;;;;;;;;;;5174582;27;20605;-77
2022/02/21 09:38:37;;;;;;;9.85;1.75;;;;;;;;;;5171248;27;20530;-76
2022/02/21 09:41:04;;;;;;;4.93;1.50;;;;;;;;;;5170511;27;20253;-76
2022/02/21 09:43:30;;;;;;;6.75;1.65;;;;;;;;;;5110697;28;20199;-77
2022/02/21 09:45:57;;;;;;;4.75;1.40;;;;;;;;;;5091592;28;20302;-77
2022/02/21 09:48:23;;;;;;;9.00;1.80;;;;;;;;;;5055579;28;20542;-78
2022/02/21 09:50:49;;;;;;;7.90;2.22;;;;;;;;;;5040637;28;20518;-77
2022/02/21 09:53:15;;;;;;;5.23;1.43;;;;;;;;;;5004892;28;20279;-78
2022/02/21 09:58:18;;;;;;;6.80;2.00;;;;;;;;;;5192737;27;20488;-77
2022/02/21 10:00:44;;;;;;;4.07;1.73;;;;;;;;;;5187696;27;20189;-76
2022/02/21 10:03:10;;;;;;;9.73;1.92;;;;;;;;;;5172120;27;20433;-77
2022/02/21 10:05:36;;;;;;;7.93;1.40;;;;;;;;;;5163212;27;20266;-77
2022/02/21 10:08:07;;;;;;;9.80;2.10;;;;;;;;;;5109793;28;20805;-75
2022/02/21 10:10:35;;;;;;;6.43;2.10;;;;;;;;;;5100472;28;20642;-77
2022/02/21 10:13:01;;;;;;;5.05;1.90;;;;;;;;;;5108531;28;20187;-76
2022/02/21 10:15:27;;;;;;;7.10;2.10;;;;;;;;;;5100633;28;20260;-77
2022/02/21 10:18:13;;;;;;;8.60;3.30;;;;;;;;;;5059227;28;20224;-78
2022/02/21 10:23:13;;;;;;;13.80;2.72;;;;;;;;;;5193039;27;20279;-76
2022/02/21 10:25:53;;;;;;;5.80;1.80;;;;;;;;;;5162256;27;20212;-78
2022/02/21 10:28:29;;;;;;;6.70;1.85;;;;;;;;;;5154634;27;20415;-77
2022/02/21 10:31:27;;;;;;;5.68;1.65;;;;;;;;;;5170357;27;20191;-77
2022/02/21 10:34:01;;;;;;;4.05;2.00;;;;;;;;;;5094732;28;20205;-77
2022/02/21 10:36:28;;;;;;;5.53;2.00;;;;;;;;;;5094860;28;20299;-77
2022/02/21 10:38:54;;;;;;;10.65;3.28;;;;;;;;;;5025797;28;20257;-78
2022/02/21 10:41:35;;;;;;;10.70;2.50;;;;;;;;;;5041071;28;20610;-77
2022/02/21 10:44:13;;;;;;;6.60;2.40;;;;;;;;;;4883369;28;20261;-77
2022/02/21 10:48:24;;;;;;;4.75;1.95;;;;;;;;;;5192764;27;20820;-80
2022/02/21 10:50:57;;;;;;;7.32;1.52;;;;;;;;;;5170683;27;20216;-80
2022/02/21 10:53:23;;;;;;;10.00;2.17;;;;;;;;;;5158211;27;20251;-79
2022/02/21 10:55:50;;;;;;;7.32;3.30;;;;;;;;;;5092733;28;20262;-80
2022/02/21 10:58:17;;;;;;;6.00;2.17;;;;;;;;;;5062726;28;20252;-82
2022/02/21 11:00:44;;;;;;;10.27;1.90;;;;;;;;;;5050400;28;20184;-77
2022/02/21 11:03:10;;;;;;;6.10;2.13;;;;;;;;;;5041650;28;20252;-78
2022/02/21 11:05:37;;;;;;;8.20;2.13;;;;;;;;;;4942606;28;20223;-81
2022/02/21 11:08:03;;;;;;;10.63;2.00;;;;;;;;;;4853861;28;25170;-79
2022/02/21 11:11:53;;;;;;;4.88;1.63;;;;;;;;;;5193141;27;20820;-78
2022/02/21 11:14:23;;;;;;;3.65;2.05;;;;;;;;;;5187789;27;20184;-79
2022/02/21 11:16:50;;;;;;;9.88;1.95;;;;;;;;;;5154305;27;20690;-77
2022/02/21 11:19:16;;;;;;;6.35;2.58;;;;;;;;;;5170244;27;20185;-79
2022/02/21 11:21:43;;;;;;;8.18;2.17;;;;;;;;;;5120012;27;20189;-77
2022/02/21 11:24:09;;;;;;;5.15;1.60;;;;;;;;;;5095988;28;20191;-78
2022/02/21 11:26:38;;;;;;;5.35;1.58;;;;;;;;;;5099921;28;20199;-79
2022/02/21 11:29:11;;;;;;;7.95;2.10;;;;;;;;;;5042717;28;20192;-77
2022/02/21 11:31:40;;;;;;;5.63;1.75;;;;;;;;;;4905725;28;20221;-77
2022/02/21 11:36:06;;;;;;;9.25;3.80;;;;;;;;;;5181221;27;20502;-84
2022/02/21 11:38:33;;;;;;;4.28;1.33;;;;;;;;;;5184882;27;20522;-83
2022/02/21 11:41:13;;;;;;;9.57;2.30;;;;;;;;;;5152022;27;20180;-80
2022/02/21 11:43:47;;;;;;;4.43;1.15;;;;;;;;;;5100364;27;20194;-82
2022/02/21 11:46:22;;;;;;;2.67;1.10;;;;;;;;;;5055198;28;20227;-83
2022/02/21 11:49:01;;;;;;;6.88;2.03;;;;;;;;;;5038081;28;20259;-82
2022/02/21 11:51:27;;;;;;;6.38;2.30;;;;;;;;;;4891532;28;20210;-82
2022/02/21 11:53:53;;;;;;;12.68;2.15;;;;;;;;;;4813731;29;20203;-83
2022/02/21 11:56:19;;;;;;;3.80;1.38;;;;;;;;;;4634313;30;20228;-82
2022/02/21 12:00:26;;;;;;;5.10;1.73;;;;;;;;;;5193444;27;20319;-83
2022/02/21 12:03:12;;;;;;;4.20;1.25;;;;;;;;;;5113366;27;20249;-82
2022/02/21 12:05:38;;;;;;;5.78;1.38;;;;;;;;;;5138025;27;20221;-81
2022/02/21 12:08:21;;;;;;;5.10;1.50;;;;;;;;;;5117727;28;20625;-82
2022/02/21 12:11:14;;;;;;;5.20;1.40;;;;;;;;;;5045352;28;20194;-81
2022/02/21 12:13:49;;;;;;;4.72;1.50;;;;;;;;;;5054163;28;20539;-80
2022/02/21 12:16:15;;;;;;;6.80;1.80;;;;;;;;;;4948032;28;20214;-80
2022/02/21 12:18:45;;;;;;;4.18;1.33;;;;;;;;;;4846400;29;20299;-81
2022/02/21 12:24:15;;;;;;;5.00;1.98;;;;;;;;;;5193127;27;20496;-79
2022/02/21 12:26:42;;;;;;;6.60;2.15;;;;;;;;;;5162033;27;20209;-82
2022/02/21 12:29:08;;;;;;;27.40;1.98;;;;;;;;;;5168977;27;20212;-82
2022/02/21 12:31:35;;;;;;;5.90;1.58;;;;;;;;;;5161856;27;20216;-84
2022/02/21 12:34:01;;;;;;;5.65;1.80;;;;;;;;;;5140883;27;20546;-86
2022/02/21 12:36:36;;;;;;;2.72;1.38;;;;;;;;;;5140830;27;20627;-85
2022/02/21 12:39:04;;;;;;;6.28;1.65;;;;;;;;;;5100524;28;20191;-85
2022/02/21 12:41:31;;;;;;;4.53;1.88;;;;;;;;;;4966560;28;20223;-85
2022/02/21 12:43:58;;;;;;;7.10;1.77;;;;;;;;;;4912319;28;20301;-84
2022/02/21 12:49:51;;;;;;;8.93;1.75;;;;;;;;;;5193293;27;21018;-82
2022/02/21 12:52:17;;;;;;;8.05;3.30;;;;;;;;;;5171013;27;20180;-80
2022/02/21 12:54:43;;;;;;;4.80;1.73;;;;;;;;;;5185947;27;20181;-80
2022/02/21 12:57:09;;;;;;;8.60;1.90;;;;;;;;;;5149841;27;20190;-82
2022/02/21 12:59:36;;;;;;;5.23;1.57;;;;;;;;;;5148876;27;20605;-81
2022/02/21 13:02:03;;;;;;;12.10;2.28;;;;;;;;;;5137186;27;20481;-81
2022/02/21 13:04:32;;;;;;;6.93;1.30;;;;;;;;;;5144235;27;20189;-81
2022/02/21 13:07:00;;;;;;;2.65;1.25;;;;;;;;;;5051906;28;20201;-83
2022/02/21 13:09:26;;;;;;;4.10;2.15;;;;;;;;;;4997441;28;20223;-83
2022/02/21 13:14:31;;;;;;;5.13;2.03;;;;;;;;;;5192976;27;20508;-84
2022/02/21 13:17:08;;;;;;;4.55;1.83;;;;;;;;;;5160137;27;20323;-83
2022/02/21 13:19:38;;;;;;;2.75;1.27;;;;;;;;;;5121016;27;20270;-80
2022/02/21 13:22:05;;;;;;;7.45;1.73;;;;;;;;;;5126947;27;20196;-80
2022/02/21 13:24:32;;;;;;;9.40;1.98;;;;;;;;;;5135032;27;20194;-81
2022/02/21 13:26:59;;;;;;;5.88;1.80;;;;;;;;;;5104986;28;20218;-80
2022/02/21 13:29:41;;;;;;;5.45;1.85;;;;;;;;;;5094684;28;20266;-80
2022/02/21 13:32:23;;;;;;;13.18;2.40;;;;;;;;;;5024714;28;20265;-79
2022/02/21 13:34:58;;;;;;;21.33;3.17;;;;;;;;;;4993466;28;20278;-78
2022/02/21 13:39:42;;;;;;;10.77;2.50;;;;;;;;;;5193044;27;20826;-84
2022/02/21 13:42:15;;;;;;;17.27;3.10;;;;;;;;;;5189319;27;20595;-83
2022/02/21 13:44:41;;;;;;;11.77;3.15;;;;;;;;;;5192531;27;20189;-83
2022/02/21 13:47:07;;;;;;;27.77;3.17;;;;;;;;;;5151136;27;20206;-83
2022/02/21 13:49:37;;;;;;;11.88;3.05;;;;;;;;;;5111595;27;20449;-83
2022/02/21 13:52:04;;;;;;;14.75;3.58;;;;;;;;;;5121377;28;20191;-83
2022/02/21 13:54:30;;;;;;;10.52;2.65;;;;;;;;;;5124740;28;20193;-82
2022/02/21 13:57:22;;;;;;;13.23;2.57;;;;;;;;;;5065011;28;20220;-81
2022/02/21 13:59:49;;;;;;;20.80;3.85;;;;;;;;;;4972070;28;20477;-81
2022/02/21 14:04:38;;;;;;;11.15;2.88;;;;;;;;;;5183661;27;20292;-83
2022/02/21 14:07:06;;;;;;;9.77;4.97;;;;;;;;;;5167487;27;20211;-84
2022/02/21 14:09:32;;;;;;;12.10;3.25;;;;;;;;;;5190888;27;20422;-82
2022/02/21 14:12:09;;;;;;;9.88;2.95;;;;;;;;;;5144982;27;20199;-83
2022/02/21 14:14:35;;;;;;;8.48;3.28;;;;;;;;;;5095477;28;20189;-82
2022/02/21 14:17:02;;;;;;;14.47;4.53;;;;;;;;;;5107120;27;20230;-83
2022/02/21 14:19:28;;;;;;;6.43;2.70;;;;;;;;;;5053066;28;20518;-82
2022/02/21 14:21:54;;;;;;;12.70;2.58;;;;;;;;;;5034060;28;20198;-82
2022/02/21 14:24:21;;;;;;;3.00;1.58;;;;;;;;;;4940208;28;20228;-84
2022/02/21 14:28:05;;;;;;;13.77;3.25;;;;;;;;;;5193645;27;20485;-84
2022/02/21 14:30:31;;;;;;;11.57;3.22;;;;;;;;;;5188271;27;20183;-86
2022/02/21 14:32:57;;;;;;;12.63;2.83;;;;;;;;;;5192587;27;20193;-87
2022/02/21 14:38:01;;;;;;;11.02;3.15;;;;;;;;;;5867831;22;20234;-85
2022/02/21 14:40:27;;;;;;;6.65;1.65;;;;;;;;;;5078450;28;20204;-85
2022/02/21 14:42:56;;;;;;;8.93;2.40;;;;;;;;;;5023357;28;20196;-85
2022/02/21 14:45:22;;;;;;;15.05;2.60;;;;;;;;;;4963471;28;20456;-81
2022/02/21 14:47:48;;;;;;;10.10;2.60;;;;;;;;;;4896239;29;20223;-80
2022/02/21 14:50:14;;;;;;;10.80;2.17;;;;;;;;;;4898479;29;20453;-79
2022/02/21 14:54:16;;;;;;;10.10;2.95;;;;;;;;;;5193252;27;20485;-80
2022/02/21 14:56:43;;;;;;;11.15;3.13;;;;;;;;;;5170075;27;20214;-81
2022/02/21 14:59:09;;;;;;;4.13;1.60;;;;;;;;;;5171075;27;20213;-81
2022/02/21 15:01:35;;;;;;;11.15;1.65;;;;;;;;;;5115227;27;20574;-81
2022/02/21 15:04:02;;;;;;;8.63;1.63;;;;;;;;;;4989187;28;20199;-82
2022/02/21 15:06:29;;;;;;;7.47;2.33;;;;;;;;;;4937010;28;20248;-80
2022/02/21 15:08:55;;;;;;;12.43;2.05;;;;;;;;;;4938400;29;20201;-79
2022/02/21 15:11:21;;;;;;;7.03;1.42;;;;;;;;;;4853251;29;20245;-79
2022/02/21 15:13:47;;;;;;;8.65;1.67;;;;;;;;;;4846370;29;20303;-80
2022/02/21 15:18:48;;;;;;;7.18;2.30;;;;;;;;;;5193032;27;20770;-80
2022/02/21 15:21:14;;;;;;;10.80;2.35;;;;;;;;;;5187837;27;20180;-79
2022/02/21 15:23:40;;;;;;;6.22;1.85;;;;;;;;;;5172602;27;20601;-79
2022/02/21 15:26:09;;;;;;;6.88;1.90;;;;;;;;;;5179412;27;20269;-79
2022/02/21 15:28:37;;;;;;;14.25;2.47;;;;;;;;;;5136465;27;20179;-79
2022/02/21 15:31:03;;;;;;;11.77;2.00;;;;;;;;;;5073734;28;20195;-79
2022/02/21 15:33:29;;;;;;;8.48;1.60;;;;;;;;;;5052043;28;20612;-81
2022/02/21 15:35:55;;;;;;;5.63;2.40;;;;;;;;;;5068427;28;20214;-78
2022/02/21 15:38:21;;;;;;;9.52;1.95;;;;;;;;;;5115470;28;20211;-79
2022/02/21 15:43:13;;;;;;;11.57;2.35;;;;;;;;;;5193243;27;20481;-80
2022/02/21 15:45:40;;;;;;;5.85;1.92;;;;;;;;;;5179465;27;20207;-76
2022/02/21 15:48:06;;;;;;;7.32;2.03;;;;;;;;;;5171172;27;20189;-78
2022/02/21 15:50:35;;;;;;;11.30;2.75;;;;;;;;;;5170566;27;20706;-79
2022/02/21 15:53:01;;;;;;;8.20;2.25;;;;;;;;;;5109944;27;20211;-78
2022/02/21 15:55:27;;;;;;;9.17;2.10;;;;;;;;;;5030673;28;20209;-79
2022/02/21 15:57:53;;;;;;;5.60;1.30;;;;;;;;;;5031382;28;20445;-79
2022/02/21 16:00:20;;;;;;;12.63;1.87;;;;;;;;;;4957607;28;20203;-78
2022/02/21 16:02:46;;;;;;;14.63;2.42;;;;;;;;;;4919686;28;20487;-79
2022/02/21 16:06:57;;;;;;;7.13;2.28;;;;;;;;;;5167335;27;20501;-78
2022/02/21 16:09:23;;;;;;;19.08;2.38;;;;;;;;;;5170567;27;20192;-78
2022/02/21 16:11:49;;;;;;;7.72;2.05;;;;;;;;;;5172358;27;20199;-79